Terminal Aerodrome Forecast
Issued by NWS Northern Indiana

Home | Current Version | Previous Version | Graphics & Text | Print | Product List | Glossary On
Versions: 1 2 3 4 5 6 7 8 9 10 11 12 13 14 15 16
269
FTUS43 KIWX 261120
TAFFWA
TAF
KFWA 261120Z 2612/2712 10007KT 4SM -RA BR BKN004 OVC060
     FM261700 19012KT 6SM -SHRA BKN020
     FM270500 24007KT P6SM OVC015
     FM270800 24007KT 4SM BR BKN008=

USA.gov is the U.S. government's official web portal to all federal, state and local government web resources and services.